createdAt,value
2018-05-29T00:00:06.257Z,4.60
2018-05-29T00:02:37.923Z,4.77
2018-05-29T00:05:07.409Z,4.83
2018-05-29T00:07:37.962Z,4.87
2018-05-29T00:10:08.949Z,4.97
2018-05-29T00:12:40.775Z,4.63
2018-05-29T00:15:10.273Z,4.80
2018-05-29T00:17:39.112Z,5.07
2018-05-29T00:20:07.515Z,4.33
2018-05-29T00:22:35.448Z,4.63
2018-05-29T00:25:04.273Z,4.60
2018-05-29T00:27:33.344Z,4.60
2018-05-29T00:30:00.950Z,5.00
2018-05-29T00:32:30.208Z,4.80
2018-05-29T00:34:59.223Z,4.47
2018-05-29T00:37:26.934Z,4.87
2018-05-29T00:39:58.449Z,4.30
2018-05-29T00:42:27.172Z,4.20
2018-05-29T00:44:55.131Z,4.67
2018-05-29T00:47:24.088Z,4.17
2018-05-29T00:49:51.746Z,4.60
2018-05-29T00:52:21.723Z,4.43
2018-05-29T00:55:03.291Z,4.90
2018-05-29T00:57:31.162Z,4.50
2018-05-29T00:59:59.568Z,4.80
2018-05-29T01:02:27.928Z,4.80
2018-05-29T01:04:56.356Z,4.47
2018-05-29T01:07:24.033Z,4.43
2018-05-29T01:09:52.183Z,4.30
2018-05-29T01:12:20.397Z,4.50
2018-05-29T01:14:48.085Z,4.07
2018-05-29T01:17:17.923Z,4.87
2018-05-29T01:19:45.626Z,4.90
2018-05-29T01:22:13.266Z,4.90
2018-05-29T01:24:42.343Z,4.57
2018-05-29T01:27:10.027Z,4.57
2018-05-29T01:29:38.712Z,4.23
2018-05-29T01:32:06.439Z,4.97
2018-05-29T01:34:34.357Z,4.63
2018-05-29T01:37:05.808Z,4.67
2018-05-29T01:39:33.468Z,4.77
2018-05-29T01:42:01.088Z,4.87
2018-05-29T01:44:30.759Z,4.63
2018-05-29T01:46:58.371Z,4.73
2018-05-29T01:49:26.904Z,4.80
2018-05-29T01:51:58.093Z,4.60
2018-05-29T01:54:28.873Z,4.80
2018-05-29T01:56:56.535Z,4.60
2018-05-29T01:59:25.864Z,5.07
2018-05-29T02:01:53.514Z,5.00
2018-05-29T02:04:23.549Z,8.33
2018-05-29T02:06:53.386Z,17.20
2018-05-29T02:09:21.864Z,4.97
2018-05-29T02:11:49.456Z,4.90
2018-05-29T02:14:18.773Z,4.80
2018-05-29T02:16:47.129Z,5.13
2018-05-29T02:19:14.747Z,4.90
2018-05-29T02:21:42.408Z,4.70
2018-05-29T02:24:09.991Z,4.70
2018-05-29T02:26:37.574Z,4.97
2018-05-29T02:29:05.214Z,4.73
2018-05-29T02:31:32.852Z,4.60
2018-05-29T02:34:00.475Z,4.90
2018-05-29T02:36:28.899Z,5.17
2018-05-29T02:38:56.522Z,4.70
2018-05-29T02:41:24.957Z,5.00
2018-05-29T02:43:52.551Z,4.47
2018-05-29T02:46:20.908Z,4.93
2018-05-29T02:48:49.276Z,4.93
2018-05-29T02:51:16.893Z,4.83
2018-05-29T02:53:44.649Z,5.13
2018-05-29T02:56:12.346Z,4.60
2018-05-29T02:58:39.988Z,4.90
2018-05-29T03:01:07.610Z,4.93
2018-05-29T03:03:36.021Z,4.70
2018-05-29T03:06:03.642Z,4.83
2018-05-29T03:08:31.261Z,4.83
2018-05-29T03:10:58.870Z,5.30
2018-05-29T03:13:27.244Z,5.13
2018-05-29T03:15:55.662Z,4.90
2018-05-29T03:18:23.488Z,4.87
2018-05-29T03:20:51.939Z,4.90
2018-05-29T03:23:19.527Z,5.57
2018-05-29T03:25:47.917Z,5.13
2018-05-29T03:28:16.304Z,5.13
2018-05-29T03:30:43.941Z,4.97
2018-05-29T03:33:11.601Z,5.17
2018-05-29T03:35:39.236Z,5.23
2018-05-29T03:38:06.854Z,5.30
2018-05-29T03:40:34.464Z,4.90
2018-05-29T03:43:03.048Z,4.97
2018-05-29T03:45:30.674Z,4.80
2018-05-29T03:47:58.266Z,5.23
2018-05-29T03:50:25.895Z,4.67
2018-05-29T03:52:53.976Z,4.97
2018-05-29T03:55:21.638Z,5.20
2018-05-29T03:57:49.298Z,5.00
2018-05-29T04:00:17.657Z,5.70
2018-05-29T04:02:45.284Z,4.90
2018-05-29T04:05:13.650Z,5.03
2018-05-29T04:07:42.746Z,4.83
2018-05-29T04:10:10.369Z,5.20
2018-05-29T04:12:37.948Z,4.80
2018-05-29T04:15:05.693Z,4.83
2018-05-29T04:17:33.353Z,5.13
2018-05-29T04:20:00.966Z,4.80
2018-05-29T04:22:29.996Z,4.80
2018-05-29T04:24:57.618Z,5.07
2018-05-29T04:27:26.020Z,5.60
2018-05-29T04:29:53.889Z,4.93
2018-05-29T04:32:21.499Z,5.03
2018-05-29T04:34:49.450Z,5.23
2018-05-29T04:37:17.112Z,4.90
2018-05-29T04:39:44.774Z,5.13
2018-05-29T04:42:12.387Z,5.37
2018-05-29T04:44:40.778Z,5.70
2018-05-29T04:47:08.479Z,5.40
2018-05-29T04:49:36.163Z,5.43
2018-05-29T04:52:04.576Z,5.63
2018-05-29T04:54:32.192Z,5.47
2018-05-29T04:56:59.844Z,5.63
2018-05-29T04:59:27.435Z,5.10
2018-05-29T05:01:55.818Z,5.10
2018-05-29T05:04:24.206Z,5.30
2018-05-29T05:06:51.844Z,4.90
2018-05-29T05:09:19.820Z,5.10
2018-05-29T05:11:48.178Z,4.80
2018-05-29T05:14:16.537Z,5.20
2018-05-29T05:16:44.163Z,5.87
2018-05-29T05:19:13.334Z,5.30
2018-05-29T05:21:41.743Z,5.30
2018-05-29T05:24:09.392Z,5.00
2018-05-29T05:26:36.990Z,4.87
2018-05-29T05:29:04.600Z,4.77
2018-05-29T05:31:33.017Z,4.43
2018-05-29T05:34:00.682Z,5.30
2018-05-29T05:36:28.265Z,5.03
2018-05-29T05:38:56.684Z,5.33
2018-05-29T05:41:24.328Z,4.67
2018-05-29T05:43:52.712Z,4.73
2018-05-29T05:46:21.128Z,4.33
2018-05-29T05:48:49.341Z,4.73
2018-05-29T05:51:16.943Z,4.90
2018-05-29T05:53:44.716Z,5.20
2018-05-29T05:56:12.320Z,4.73
2018-05-29T05:58:39.929Z,4.70
2018-05-29T06:01:07.549Z,4.87
2018-05-29T06:03:35.992Z,4.50
2018-05-29T06:06:03.622Z,5.57
2018-05-29T06:08:31.264Z,4.70
2018-05-29T06:10:59.696Z,4.40
2018-05-29T06:13:28.260Z,4.43
2018-05-29T06:15:55.887Z,4.53
2018-05-29T06:18:24.277Z,4.60
2018-05-29T06:20:52.659Z,4.50
2018-05-29T06:23:20.356Z,4.47
2018-05-29T06:25:48.004Z,5.27
2018-05-29T06:28:15.597Z,4.13
2018-05-29T06:30:43.219Z,3.80
2018-05-29T06:33:11.891Z,4.00
2018-05-29T06:35:39.554Z,4.00
2018-05-29T06:38:07.206Z,4.10
2018-05-29T06:40:35.572Z,3.80
2018-05-29T06:43:03.955Z,3.30
2018-05-29T06:45:31.581Z,4.20
2018-05-29T06:47:59.190Z,3.80
2018-05-29T06:50:26.782Z,4.37
2018-05-29T06:52:54.454Z,3.50
2018-05-29T06:55:22.092Z,4.43
2018-05-29T06:57:49.722Z,4.17
2018-05-29T07:00:18.751Z,4.77
2018-05-29T07:02:46.369Z,3.80
2018-05-29T07:05:14.733Z,3.90
2018-05-29T07:07:43.145Z,3.60
2018-05-29T07:10:10.780Z,3.40
2018-05-29T07:12:39.861Z,3.47
2018-05-29T07:15:08.302Z,3.07
2018-05-29T07:17:36.063Z,3.43
2018-05-29T07:20:03.695Z,3.30
2018-05-29T07:22:31.315Z,3.50
2018-05-29T07:24:58.922Z,3.37
2018-05-29T07:27:26.533Z,3.37
2018-05-29T07:29:54.267Z,3.17
2018-05-29T07:32:21.887Z,3.33
2018-05-29T07:34:50.333Z,3.57
2018-05-29T07:37:17.920Z,3.97
2018-05-29T07:39:46.327Z,3.67
2018-05-29T07:42:14.365Z,3.80
2018-05-29T07:44:42.712Z,3.70
2018-05-29T07:47:10.353Z,3.47
2018-05-29T07:49:39.065Z,3.13
2018-05-29T07:52:06.682Z,3.40
2018-05-29T07:54:34.288Z,3.53
2018-05-29T07:57:01.921Z,4.10
2018-05-29T07:59:29.610Z,3.67
2018-05-29T08:01:57.233Z,3.47
2018-05-29T08:04:24.846Z,3.30
2018-05-29T08:06:53.588Z,3.67
2018-05-29T08:09:21.343Z,4.73
2018-05-29T08:11:49.002Z,3.53
2018-05-29T08:14:16.598Z,3.70
2018-05-29T08:16:44.222Z,3.00
2018-05-29T08:19:12.470Z,3.47
2018-05-29T08:21:40.056Z,3.17
2018-05-29T08:24:07.633Z,4.17
2018-05-29T08:26:35.326Z,3.40
2018-05-29T08:29:03.154Z,3.10
2018-05-29T08:31:30.811Z,3.50
2018-05-29T08:33:58.416Z,5.60
2018-05-29T08:36:26.075Z,3.30
2018-05-29T08:38:54.469Z,3.20
2018-05-29T08:41:22.886Z,3.47
2018-05-29T08:43:50.525Z,3.20
2018-05-29T08:46:18.573Z,3.33
2018-05-29T08:48:46.334Z,3.70
2018-05-29T08:51:14.762Z,3.27
2018-05-29T08:53:42.354Z,2.87
2018-05-29T08:56:09.980Z,2.90
2018-05-29T08:58:37.729Z,2.47
2018-05-29T09:01:05.320Z,3.57
2018-05-29T09:03:32.992Z,2.73
2018-05-29T09:06:02.266Z,2.83
2018-05-29T09:08:29.874Z,2.73
2018-05-29T09:10:58.300Z,3.33
2018-05-29T09:13:25.979Z,2.70
2018-05-29T09:15:53.599Z,2.73
2018-05-29T09:18:21.810Z,2.73
2018-05-29T09:20:49.458Z,2.87
2018-05-29T09:23:17.059Z,3.20
2018-05-29T09:25:44.677Z,3.40
2018-05-29T09:28:12.297Z,3.93
2018-05-29T09:30:40.665Z,3.30
2018-05-29T09:33:09.030Z,2.70
2018-05-29T09:35:36.704Z,3.37
2018-05-29T09:38:05.097Z,2.97
2018-05-29T09:40:32.703Z,3.00
2018-05-29T09:43:00.329Z,3.30
2018-05-29T09:45:27.992Z,2.53
2018-05-29T09:47:56.538Z,3.20
2018-05-29T09:52:59.592Z,2.87
2018-05-29T09:55:27.239Z,2.87
2018-05-29T09:57:54.829Z,2.87
2018-05-29T10:00:28.174Z,2.90
2018-05-29T10:02:56.539Z,4.13
2018-05-29T10:05:24.983Z,3.60
2018-05-29T10:07:52.624Z,3.07
2018-05-29T10:10:20.255Z,3.10
2018-05-29T10:12:48.652Z,3.20
2018-05-29T10:15:16.229Z,3.50
2018-05-29T10:17:43.839Z,3.10
2018-05-29T10:20:12.219Z,2.60
2018-05-29T10:22:40.646Z,2.90
2018-05-29T10:25:08.280Z,6.90
2018-05-29T10:27:35.930Z,2.97
2018-05-29T10:30:03.536Z,3.30
2018-05-29T10:32:31.909Z,3.10
2018-05-29T10:34:59.673Z,2.70
2018-05-29T10:37:27.496Z,3.23
2018-05-29T10:39:55.667Z,2.93
2018-05-29T10:42:23.430Z,2.93
2018-05-29T10:44:51.338Z,3.17
2018-05-29T10:47:19.849Z,2.97
2018-05-29T10:49:49.039Z,2.50
2018-05-29T10:52:17.468Z,2.90
2018-05-29T10:54:45.097Z,2.70
2018-05-29T10:57:13.540Z,2.80
2018-05-29T10:59:41.159Z,2.70
2018-05-29T11:02:08.777Z,2.60
2018-05-29T11:04:37.159Z,2.77
2018-05-29T11:07:04.756Z,2.53
2018-05-29T11:09:32.361Z,2.83
2018-05-29T11:11:59.987Z,2.53
2018-05-29T11:14:27.581Z,2.63
2018-05-29T11:16:55.748Z,2.37
2018-05-29T11:19:23.417Z,2.70
2018-05-29T11:21:51.019Z,3.13
2018-05-29T11:24:18.685Z,3.33
2018-05-29T11:26:46.371Z,3.10
2018-05-29T11:29:13.999Z,3.13
2018-05-29T11:31:42.340Z,2.60
2018-05-29T11:34:09.937Z,3.30
2018-05-29T11:36:37.556Z,3.27
2018-05-29T11:39:06.114Z,2.97
2018-05-29T11:41:33.726Z,3.20
2018-05-29T11:44:02.151Z,3.40
2018-05-29T11:46:29.777Z,3.80
2018-05-29T11:48:58.014Z,3.20
2018-05-29T11:51:25.630Z,3.37
2018-05-29T11:53:53.504Z,2.60
2018-05-29T11:56:21.090Z,2.93
2018-05-29T11:58:48.738Z,2.97
2018-05-29T12:01:16.341Z,2.67
2018-05-29T12:03:44.719Z,2.37
2018-05-29T12:06:13.126Z,2.83
2018-05-29T12:08:40.780Z,3.10
2018-05-29T12:11:08.504Z,2.97
2018-05-29T12:13:36.922Z,3.37
2018-05-29T12:16:04.527Z,3.30
2018-05-29T12:18:32.345Z,2.90
2018-05-29T12:21:00.049Z,3.03
2018-05-29T12:23:27.662Z,4.00
2018-05-29T12:25:55.286Z,2.80
2018-05-29T12:28:23.656Z,2.93
2018-05-29T12:30:52.828Z,3.87
2018-05-29T12:33:20.466Z,8.40
2018-05-29T12:35:48.334Z,4.00
2018-05-29T12:38:16.177Z,3.40
2018-05-29T12:40:44.701Z,3.30
2018-05-29T12:43:12.467Z,5.43
2018-05-29T12:45:40.223Z,3.50
2018-05-29T12:48:07.872Z,3.00
2018-05-29T12:50:35.494Z,5.23
2018-05-29T12:53:03.893Z,5.70
2018-05-29T12:55:31.557Z,3.70
2018-05-29T12:57:59.200Z,3.67
2018-05-29T13:00:27.635Z,3.10
2018-05-29T13:02:55.293Z,6.27
2018-05-29T13:05:22.939Z,4.50
2018-05-29T13:07:50.602Z,3.40
2018-05-29T13:10:18.234Z,8.90
2018-05-29T13:12:46.625Z,4.27
2018-05-29T13:15:14.248Z,4.67
2018-05-29T13:17:41.897Z,3.57
2018-05-29T13:20:09.519Z,3.70
2018-05-29T13:22:37.192Z,4.57
2018-05-29T13:25:04.801Z,3.73
2018-05-29T13:27:34.169Z,3.53
2018-05-29T13:30:01.801Z,3.50
2018-05-29T13:32:29.462Z,3.80
2018-05-29T13:34:57.852Z,3.40
2018-05-29T13:37:25.456Z,3.93
2018-05-29T13:39:53.655Z,3.80
2018-05-29T13:42:21.251Z,4.07
2018-05-29T13:44:48.888Z,4.07
2018-05-29T13:47:16.511Z,4.30
2018-05-29T13:49:44.122Z,3.90
2018-05-29T13:52:11.794Z,3.80
2018-05-29T13:54:40.142Z,3.80
2018-05-29T13:57:07.795Z,4.27
2018-05-29T13:59:35.392Z,4.97
2018-05-29T14:02:03.014Z,4.67
2018-05-29T14:04:30.660Z,4.60
2018-05-29T14:06:59.047Z,5.63
2018-05-29T14:09:27.460Z,4.37
2018-05-29T14:11:55.060Z,4.10
2018-05-29T14:14:22.681Z,4.30
2018-05-29T14:16:50.292Z,7.00
2018-05-29T14:19:18.749Z,5.13
2018-05-29T14:21:47.883Z,4.60
2018-05-29T14:24:15.502Z,4.00
2018-05-29T14:26:43.139Z,4.57
2018-05-29T14:29:10.755Z,5.03
2018-05-29T14:31:39.178Z,4.60
2018-05-29T14:34:06.756Z,4.50
2018-05-29T14:36:34.366Z,4.53
2018-05-29T14:39:01.944Z,4.43
2018-05-29T14:41:29.573Z,3.70
2018-05-29T14:43:58.075Z,8.80
2018-05-29T14:46:26.472Z,10.90
2018-05-29T14:48:54.188Z,4.30
2018-05-29T14:51:22.643Z,5.40
2018-05-29T14:53:50.330Z,4.60
2018-05-29T14:56:18.880Z,4.40
2018-05-29T14:58:46.550Z,4.00
2018-05-29T15:01:14.181Z,4.13
2018-05-29T15:03:41.773Z,4.50
2018-05-29T15:06:09.399Z,4.57
2018-05-29T15:08:37.040Z,4.87
2018-05-29T15:11:04.724Z,4.90
2018-05-29T15:13:32.385Z,4.50
2018-05-29T15:16:00.603Z,4.33
2018-05-29T15:18:29.247Z,4.50
2018-05-29T15:20:56.838Z,5.10
2018-05-29T15:23:24.454Z,4.70
2018-05-29T15:25:52.121Z,4.87
2018-05-29T15:28:19.781Z,4.80
2018-05-29T15:30:47.415Z,4.60
2018-05-29T15:33:15.140Z,4.77
2018-05-29T15:35:42.812Z,4.77
2018-05-29T15:38:11.217Z,4.27
2018-05-29T15:40:38.948Z,4.70
2018-05-29T15:43:06.626Z,4.30
2018-05-29T15:45:35.027Z,4.60
2018-05-29T15:48:02.674Z,4.30
2018-05-29T15:50:30.300Z,4.40
2018-05-29T15:52:57.916Z,4.30
2018-05-29T15:55:25.539Z,4.37
2018-05-29T15:57:53.945Z,4.10
2018-05-29T16:00:21.566Z,4.20
2018-05-29T16:02:49.944Z,4.50
2018-05-29T16:05:19.058Z,4.20
2018-05-29T16:07:47.698Z,3.87
2018-05-29T16:10:15.345Z,4.00
2018-05-29T16:12:43.023Z,4.43
2018-05-29T16:15:10.687Z,4.27
2018-05-29T16:17:38.326Z,4.30
2018-05-29T16:20:05.964Z,4.00
2018-05-29T16:22:33.636Z,3.77
2018-05-29T16:25:01.876Z,4.50
2018-05-29T16:27:30.268Z,4.40
2018-05-29T16:29:58.410Z,4.33
2018-05-29T16:32:26.006Z,4.20
2018-05-29T16:34:53.673Z,4.57
2018-05-29T16:37:21.284Z,4.00
2018-05-29T16:39:48.876Z,3.90
2018-05-29T16:42:16.502Z,4.43
2018-05-29T16:44:44.151Z,4.20
2018-05-29T16:47:11.832Z,3.33
2018-05-29T16:49:39.455Z,3.57
2018-05-29T16:52:07.912Z,3.27
2018-05-29T16:54:35.577Z,3.40
2018-05-29T16:57:03.261Z,3.40
2018-05-29T16:59:31.627Z,3.40
2018-05-29T17:01:59.233Z,3.30
2018-05-29T17:04:27.634Z,3.27
2018-05-29T17:06:56.220Z,3.40
2018-05-29T17:09:24.605Z,3.17
2018-05-29T17:11:52.193Z,2.90
2018-05-29T17:14:19.854Z,2.87
2018-05-29T17:16:47.506Z,3.07
2018-05-29T17:19:15.136Z,2.77
2018-05-29T17:21:42.791Z,3.50
2018-05-29T17:24:11.185Z,2.80
2018-05-29T17:26:39.204Z,3.30
2018-05-29T17:29:06.869Z,3.07
2018-05-29T17:31:34.555Z,3.30
2018-05-29T17:34:02.945Z,3.20
2018-05-29T17:36:30.552Z,2.87
2018-05-29T17:38:58.207Z,2.93
2018-05-29T17:41:25.787Z,2.77
2018-05-29T17:43:53.420Z,3.17
2018-05-29T17:46:21.701Z,3.40
2018-05-29T17:48:49.922Z,2.93
2018-05-29T17:51:18.505Z,3.10
2018-05-29T17:53:46.244Z,3.03
2018-05-29T17:56:14.697Z,3.00
2018-05-29T17:58:42.360Z,2.93
2018-05-29T18:01:10.087Z,3.00
2018-05-29T18:03:38.627Z,3.13
2018-05-29T18:06:06.965Z,3.10
2018-05-29T18:08:34.661Z,3.00
2018-05-29T18:11:02.379Z,3.07
2018-05-29T18:13:31.848Z,3.00
2018-05-29T18:15:59.574Z,3.40
2018-05-29T18:18:27.240Z,3.37
2018-05-29T18:20:54.939Z,4.33
2018-05-29T18:23:23.356Z,2.90
2018-05-29T18:25:51.923Z,3.50
2018-05-29T18:28:19.580Z,2.80
2018-05-29T18:30:47.960Z,2.60
2018-05-29T18:33:15.855Z,3.30
2018-05-29T18:35:43.501Z,2.77
2018-05-29T18:38:11.098Z,2.80
2018-05-29T18:40:38.742Z,3.00
2018-05-29T18:43:06.416Z,3.00
2018-05-29T18:45:41.144Z,2.63
2018-05-29T18:48:09.234Z,3.43
2018-05-29T18:50:36.882Z,3.10
2018-05-29T18:53:04.549Z,2.93
2018-05-29T18:55:32.212Z,4.40
2018-05-29T18:57:59.856Z,3.00
2018-05-29T19:00:27.458Z,3.00
2018-05-29T19:02:55.939Z,2.77
2018-05-29T19:05:26.651Z,3.30
2018-05-29T19:07:57.372Z,2.70
2018-05-29T19:10:29.440Z,2.93
2018-05-29T19:12:57.317Z,3.00
2018-05-29T19:15:25.723Z,3.80
2018-05-29T19:17:53.376Z,3.10
2018-05-29T19:20:22.718Z,3.07
2018-05-29T19:22:50.395Z,3.10
2018-05-29T19:25:18.050Z,3.10
2018-05-29T19:27:48.767Z,3.13
2018-05-29T19:30:16.531Z,3.40
2018-05-29T19:32:44.497Z,3.00
2018-05-29T19:35:12.205Z,3.23
2018-05-29T19:37:39.790Z,3.30
2018-05-29T19:40:07.398Z,3.70
2018-05-29T19:42:38.300Z,3.43
2018-05-29T19:45:06.911Z,3.13
2018-05-29T19:47:34.617Z,3.70
2018-05-29T19:50:03.627Z,3.30
2018-05-29T19:52:31.325Z,3.30
2018-05-29T19:54:58.939Z,3.13
2018-05-29T19:57:30.456Z,3.30
2018-05-29T19:59:58.161Z,2.90
2018-05-29T20:02:25.957Z,3.43
2018-05-29T20:04:55.616Z,3.53
2018-05-29T20:07:24.170Z,4.20
2018-05-29T20:09:53.862Z,3.53
2018-05-29T20:12:22.529Z,3.57
2018-05-29T20:14:50.168Z,4.63
2018-05-29T20:17:19.478Z,4.30
2018-05-29T20:19:47.896Z,3.67
2018-05-29T20:22:18.002Z,3.50
2018-05-29T20:24:47.777Z,3.20
2018-05-29T20:27:15.435Z,3.37
2018-05-29T20:29:48.844Z,4.40
2018-05-29T20:32:16.997Z,5.43
2018-05-29T20:34:45.387Z,5.80
2018-05-29T20:37:13.020Z,4.10
2018-05-29T20:39:41.415Z,5.03
2018-05-29T20:42:15.650Z,10.73
2018-05-29T20:44:43.290Z,8.27
2018-05-29T20:47:10.942Z,10.90
2018-05-29T20:49:38.618Z,8.77
2018-05-29T20:52:07.267Z,7.73
2018-05-29T20:54:35.508Z,4.53
2018-05-29T20:57:07.101Z,6.70
2018-05-29T20:59:36.304Z,5.80
2018-05-29T21:02:05.574Z,4.37
2018-05-29T21:04:33.195Z,4.50
2018-05-29T21:07:00.785Z,3.30
2018-05-29T21:09:28.462Z,3.87
2018-05-29T21:11:56.878Z,3.10
2018-05-29T21:14:25.408Z,3.80
2018-05-29T21:16:53.049Z,3.50
2018-05-29T21:19:20.687Z,3.10
2018-05-29T21:21:48.367Z,3.67
2018-05-29T21:24:15.998Z,3.40
2018-05-29T21:26:43.645Z,2.93
2018-05-29T21:29:12.802Z,3.10
2018-05-29T21:31:40.702Z,3.47
2018-05-29T21:34:09.126Z,3.50
2018-05-29T21:36:36.715Z,3.57
2018-05-29T21:39:05.037Z,3.40
2018-05-29T21:41:32.665Z,3.40
2018-05-29T21:44:01.075Z,5.30
2018-05-29T21:46:29.167Z,3.20
2018-05-29T21:48:57.569Z,3.43
2018-05-29T21:51:25.574Z,3.33
2018-05-29T21:53:53.391Z,3.27
2018-05-29T21:56:22.758Z,3.50
2018-05-29T21:58:51.259Z,3.27
2018-05-29T22:01:20.568Z,3.23
2018-05-29T22:03:50.855Z,3.60
2018-05-29T22:06:19.337Z,3.03
2018-05-29T22:08:48.571Z,2.90
2018-05-29T22:11:16.200Z,3.23
2018-05-29T22:13:44.053Z,3.10
2018-05-29T22:16:11.783Z,2.97
2018-05-29T22:18:45.180Z,3.37
2018-05-29T22:21:12.868Z,3.20
2018-05-29T22:23:40.999Z,3.37
2018-05-29T22:26:08.628Z,2.90
2018-05-29T22:28:36.293Z,7.70
2018-05-29T22:31:04.644Z,3.00
2018-05-29T22:33:32.235Z,3.03
2018-05-29T22:35:59.848Z,3.50
2018-05-29T22:38:28.214Z,3.27
2018-05-29T22:40:56.656Z,3.40
2018-05-29T22:43:24.287Z,3.17
2018-05-29T22:45:51.899Z,3.07
2018-05-29T22:48:19.504Z,3.00
2018-05-29T22:50:47.144Z,3.10
2018-05-29T22:53:15.515Z,3.30
2018-05-29T22:55:43.884Z,3.00
2018-05-29T22:58:12.255Z,3.37
2018-05-29T23:00:39.841Z,3.43
2018-05-29T23:03:08.228Z,3.53
2018-05-29T23:05:35.876Z,3.07
2018-05-29T23:08:04.277Z,3.20
2018-05-29T23:10:31.906Z,3.00
2018-05-29T23:13:00.298Z,3.43
2018-05-29T23:15:28.104Z,3.30
2018-05-29T23:17:55.908Z,2.90
2018-05-29T23:20:24.284Z,2.87
2018-05-29T23:22:52.693Z,3.20
2018-05-29T23:25:20.345Z,3.27
2018-05-29T23:27:48.025Z,3.17
2018-05-29T23:30:15.657Z,3.37
2018-05-29T23:32:43.320Z,3.43
2018-05-29T23:35:10.934Z,3.50
2018-05-29T23:37:38.586Z,3.60
2018-05-29T23:40:06.216Z,3.57
2018-05-29T23:42:33.885Z,3.30
2018-05-29T23:45:02.254Z,3.20
2018-05-29T23:47:29.905Z,3.30
2018-05-29T23:49:57.554Z,3.30
2018-05-29T23:52:25.928Z,3.27
2018-05-29T23:54:54.361Z,3.37
2018-05-29T23:57:21.995Z,3.47
2018-05-29T23:59:49.671Z,3.40
